Atlantic Island — C4VM2 — position and weather

sailwx.info

Track history (hours):
 
Tides and Currents Weather Stations Pressure Air Temp Water Temp Dewpoint Dewpoint Depression Visibility Wind Speed Wind Dir Waves Ship Positions

Atlantic Island

Last reported at 2015-Jul-28 17:13 UTC. Time now 2015-Aug-02 04:22 UTC.
Position N 33°59' W 008°40'.

Length 95 m; draft 3.8 m.

Type: Cargo ship. MMSI: 210754000.

Date/timePositionNaut miles runAvg speedWind from/ knotsBaromVisibWave heightAir tempDewpointWater temp
2015-Jul-28 17:13N 33°59' W 008°40'710.1
2015-Jul-28 16:29N 34°05' W 008°36'21 9.9
2015-Jul-28 14:19N 34°25' W 008°25'9110.0
2015-Jul-28 05:13N 35°47' W 007°37'8 9.9
2015-Jul-28 04:22N 35°54' W 007°33'1310.1
2015-Jul-28 03:06N 36°06' W 007°25'610.3
2015-Jul-28 02:34N 36°11' W 007°22'  
2015-Jul-25 07:30N 35°36' W 007°10'  
2015-Jul-22 08:10N 33°40' W 007°32'0 0.0
2015-Jul-22 07:29N 33°40' W 007°32'0 0.0
2015-Jul-20 06:18N 33°40' W 007°32'56 5.2
2015-Jul-19 19:33N 34°31' W 007°59'10610.6
2015-Jul-19 09:31N 36°09' W 008°49'1010.4
2015-Jul-19 08:33N 36°18' W 008°54'1110.5
2015-Jul-19 07:33N 36°28' W 008°59'11 9.7
2015-Jul-19 06:22N 36°33' W 009°12'810.0
2015-Jul-19 05:33N 36°37' W 009°20'1010.2
2015-Jul-19 04:33N 36°44' W 009°29'4310.6
2015-Jul-19 00:33N 37°25' W 009°43'1110.6
2015-Jul-18 23:33N 37°36' W 009°46'1110.5
2015-Jul-18 22:33N 37°46' W 009°49'1010.6
2015-Jul-18 21:33N 37°56' W 009°52'1110.5
2015-Jul-18 20:33N 38°06' W 009°55'1010.5
2015-Jul-18 19:33N 38°17' W 009°58'1010.2
2015-Jul-18 18:33N 38°27' W 010°01'1010.1
2015-Jul-18 17:33N 38°36' W 010°05'  
Track history (hours):
 
Tides and Currents Weather Stations Pressure Air Temp Water Temp Dewpoint Dewpoint Depression Visibility Wind Speed Wind Dir Waves Ship Positions

Atlantic Island

Last reported at 2015-Jul-28 17:13 UTC. Time now 2015-Aug-02 04:22 UTC.
Position N 33°59' W 008°40'.

Length 95 m; draft 3.8 m.

Type: Cargo ship. MMSI: 210754000.

Date/timePositionNaut miles runAvg speedWind from/ knotsBaromVisibWave heightAir tempDewpointWater temp
2015-Jul-28 17:13N 33°59' W 008°40'710.1
2015-Jul-28 16:29N 34°05' W 008°36'21 9.9
2015-Jul-28 14:19N 34°25' W 008°25'9110.0
2015-Jul-28 05:13N 35°47' W 007°37'8 9.9
2015-Jul-28 04:22N 35°54' W 007°33'1310.1
2015-Jul-28 03:06N 36°06' W 007°25'610.3
2015-Jul-28 02:34N 36°11' W 007°22'  
2015-Jul-25 07:30N 35°36' W 007°10'  
2015-Jul-22 08:10N 33°40' W 007°32'0 0.0
2015-Jul-22 07:29N 33°40' W 007°32'0 0.0
2015-Jul-20 06:18N 33°40' W 007°32'56 5.2
2015-Jul-19 19:33N 34°31' W 007°59'10610.6
2015-Jul-19 09:31N 36°09' W 008°49'1010.4
2015-Jul-19 08:33N 36°18' W 008°54'1110.5
2015-Jul-19 07:33N 36°28' W 008°59'11 9.7
2015-Jul-19 06:22N 36°33' W 009°12'810.0
2015-Jul-19 05:33N 36°37' W 009°20'1010.2
2015-Jul-19 04:33N 36°44' W 009°29'4310.6
2015-Jul-19 00:33N 37°25' W 009°43'1110.6
2015-Jul-18 23:33N 37°36' W 009°46'1110.5
2015-Jul-18 22:33N 37°46' W 009°49'1010.6
2015-Jul-18 21:33N 37°56' W 009°52'1110.5
2015-Jul-18 20:33N 38°06' W 009°55'1010.5
2015-Jul-18 19:33N 38°17' W 009°58'1010.2
2015-Jul-18 18:33N 38°27' W 010°01'1010.1
2015-Jul-18 17:33N 38°36' W 010°05'  

Dump ship's entire track history